Time;durP1;ratioP1;P1;durP2;ratioP2;P2;SDS_P1;SDS_P2;PMS_P1;PMS_P2;Temp;Humidity;BMP_temperature;BMP_pressure;BME280_temperature;BME280_humidity;BME280_pressure;Samples;Min_cycle;Max_cycle;Signal;HPM_P1;HPM_P2
2022/09/14 00:00:59;;;;;;;13.70;6.57;;;13.90;99.90;;;;;;5094289;28;20024;-51
2022/09/14 00:03:25;;;;;;;11.05;6.40;;;14.00;99.90;;;;;;5092820;28;20024;-54
2022/09/14 00:05:50;;;;;;;8.30;5.78;;;14.00;99.90;;;;;;5093953;28;20070;-51
2022/09/14 00:08:16;;;;;;;14.27;6.18;;;14.10;99.90;;;;;;5093793;28;20422;-52
2022/09/14 00:10:47;;;;;;;9.35;5.53;;;14.10;99.90;;;;;;5093635;28;20020;-51
2022/09/14 00:13:13;;;;;;;9.68;5.72;;;14.10;99.90;;;;;;5093873;28;20020;-55
2022/09/14 00:15:41;;;;;;;9.80;6.78;;;14.10;99.90;;;;;;5092237;28;20073;-52
2022/09/14 00:18:08;;;;;;;8.82;6.55;;;14.10;99.90;;;;;;5093947;28;20048;-52
2022/09/14 00:20:35;;;;;;;12.40;6.85;;;14.20;99.90;;;;;;5093571;28;20024;-54
2022/09/14 00:23:00;;;;;;;9.02;5.95;;;14.20;99.90;;;;;;5093853;28;20020;-51
2022/09/14 00:25:27;;;;;;;7.78;6.97;;;14.20;99.90;;;;;;5093646;28;20371;-53
2022/09/14 00:27:54;;;;;;;11.40;6.10;;;14.30;99.90;;;;;;5093713;28;20043;-54
2022/09/14 00:30:22;;;;;;;14.73;6.15;;;14.30;99.90;;;;;;5093668;28;20103;-55
2022/09/14 00:32:48;;;;;;;14.65;6.43;;;14.30;99.90;;;;;;5093127;28;20410;-52
2022/09/14 00:35:13;;;;;;;10.80;6.55;;;14.40;99.90;;;;;;5093438;28;20020;-51
2022/09/14 00:37:39;;;;;;;9.27;6.25;;;14.40;99.90;;;;;;5093193;28;20031;-52
2022/09/14 00:40:06;;;;;;;13.13;6.55;;;14.40;99.90;;;;;;5093070;28;20024;-52
2022/09/14 00:42:31;;;;;;;15.50;6.15;;;14.40;99.90;;;;;;5091786;28;20119;-51
2022/09/14 00:45:01;;;;;;;10.23;7.00;;;14.40;99.90;;;;;;5093392;28;20099;-53
2022/09/14 00:47:29;;;;;;;14.30;6.63;;;14.40;99.90;;;;;;5091815;28;20131;-52
2022/09/14 00:49:55;;;;;;;12.85;7.47;;;14.30;99.90;;;;;;5093176;28;20034;-51
2022/09/14 00:52:25;;;;;;;9.65;6.38;;;14.30;99.90;;;;;;5093264;28;20024;-52
2022/09/14 00:54:55;;;;;;;9.23;5.40;;;14.40;99.90;;;;;;5093198;28;20371;-51
2022/09/14 00:57:21;;;;;;;9.23;5.57;;;14.40;99.90;;;;;;5093255;28;20019;-51
2022/09/14 00:59:49;;;;;;;13.10;6.28;;;14.40;99.90;;;;;;5092966;28;20063;-53
2022/09/14 01:02:17;;;;;;;7.82;5.90;;;14.30;99.90;;;;;;5093080;28;20020;-53
2022/09/14 01:04:43;;;;;;;7.93;6.57;;;14.20;99.90;;;;;;5092595;28;20107;-53
2022/09/14 01:07:46;;;;;;;8.70;5.50;;;14.20;99.90;;;;;;5093065;28;20104;-51
2022/09/14 01:10:31;;;;;;;7.00;6.07;;;14.20;99.90;;;;;;5092710;28;20485;-52
2022/09/14 01:13:14;;;;;;;10.40;5.88;;;14.20;99.90;;;;;;5092503;28;20052;-51
2022/09/14 01:16:01;;;;;;;6.55;5.95;;;14.20;99.90;;;;;;5092694;28;20024;-52
2022/09/14 01:18:41;;;;;;;11.90;6.20;;;14.20;99.90;;;;;;5092574;28;20020;-50
2022/09/14 01:21:09;;;;;;;15.77;6.28;;;14.20;99.90;;;;;;5092611;28;20016;-54
2022/09/14 01:24:11;;;;;;;6.00;5.40;;;14.30;99.90;;;;;;5092500;28;20073;-52
2022/09/14 01:26:51;;;;;;;13.45;5.32;;;14.40;99.90;;;;;;5092519;28;20032;-50
2022/09/14 01:29:29;;;;;;;10.70;5.32;;;14.30;99.90;;;;;;5092644;28;20024;-51
2022/09/14 01:32:18;;;;;;;15.45;6.28;;;14.40;99.90;;;;;;5092609;28;20461;-51
2022/09/14 01:35:11;;;;;;;8.73;5.38;;;14.40;99.90;;;;;;5092392;28;20051;-51
2022/09/14 01:37:41;;;;;;;7.97;5.93;;;14.40;99.90;;;;;;5092282;28;20024;-53
2022/09/14 01:40:31;;;;;;;8.00;5.20;;;14.40;99.90;;;;;;5092405;28;20028;-52
2022/09/14 01:43:32;;;;;;;10.88;5.03;;;14.40;99.90;;;;;;5092418;28;20032;-52
2022/09/14 01:46:19;;;;;;;11.68;5.25;;;14.40;99.90;;;;;;5092322;28;20393;-51
2022/09/14 01:48:48;;;;;;;13.45;5.18;;;14.40;99.90;;;;;;5092212;28;20743;-51
2022/09/14 01:51:18;;;;;;;9.70;5.05;;;14.40;99.90;;;;;;5092085;28;20405;-52
2022/09/14 01:53:48;;;;;;;17.73;5.60;;;14.40;99.90;;;;;;5091944;28;20020;-55
2022/09/14 01:56:25;;;;;;;17.85;5.78;;;14.40;99.90;;;;;;5092124;28;20054;-51
2022/09/14 01:59:04;;;;;;;7.78;4.75;;;14.30;99.90;;;;;;5091992;28;20012;-51
2022/09/14 02:01:51;;;;;;;6.30;4.78;;;14.30;99.90;;;;;;5091941;28;20028;-52
2022/09/14 02:04:26;;;;;;;6.25;4.35;;;14.30;99.90;;;;;;5091979;28;20034;-51
2022/09/14 02:06:52;;;;;;;7.38;5.03;;;14.30;99.90;;;;;;5092126;28;20032;-51
2022/09/14 02:09:21;;;;;;;11.63;5.30;;;14.30;99.90;;;;;;5091777;28;20505;-52
2022/09/14 02:11:47;;;;;;;15.13;4.55;;;14.30;99.90;;;;;;5091538;28;20051;-51
2022/09/14 02:14:13;;;;;;;6.57;4.57;;;14.30;99.90;;;;;;5091691;28;20028;-53
2022/09/14 02:16:42;;;;;;;10.85;4.82;;;14.30;99.90;;;;;;5090950;28;20341;-52
2022/09/14 02:19:08;;;;;;;10.77;4.75;;;14.30;99.90;;;;;;5091744;28;20024;-51
2022/09/14 02:21:34;;;;;;;6.82;5.05;;;14.20;99.90;;;;;;5091581;28;20024;-53
2022/09/14 02:24:01;;;;;;;10.43;5.10;;;14.20;99.90;;;;;;5091836;28;20077;-52
2022/09/14 02:26:28;;;;;;;10.75;5.05;;;14.20;99.90;;;;;;5091625;28;20020;-51
2022/09/14 02:28:55;;;;;;;12.10;4.65;;;14.20;99.90;;;;;;5090391;28;20028;-51
2022/09/14 02:31:32;;;;;;;7.45;4.88;;;14.20;99.90;;;;;;5091513;28;20082;-51
2022/09/14 02:34:15;;;;;;;6.28;4.65;;;14.30;99.90;;;;;;5090297;28;20044;-51
2022/09/14 02:36:48;;;;;;;14.98;4.80;;;14.30;99.90;;;;;;5091473;28;20023;-54
2022/09/14 02:39:32;;;;;;;10.70;4.70;;;14.30;99.90;;;;;;5091588;28;20047;-52
2022/09/14 02:42:29;;;;;;;12.57;4.70;;;14.30;99.90;;;;;;5091110;28;20082;-52
2022/09/14 02:45:16;;;;;;;7.88;4.10;;;14.30;99.90;;;;;;5091562;28;20027;-50
2022/09/14 02:47:59;;;;;;;9.27;4.93;;;14.40;99.90;;;;;;5091340;28;20035;-51
2022/09/14 02:50:50;;;;;;;7.95;4.13;;;14.40;99.90;;;;;;5091351;28;20111;-51
2022/09/14 02:53:36;;;;;;;6.07;4.63;;;14.40;99.90;;;;;;5091461;28;20050;-51
2022/09/14 02:56:06;;;;;;;9.23;4.47;;;14.40;99.90;;;;;;5059707;28;20421;-51
2022/09/14 02:58:37;;;;;;;10.15;4.93;;;14.40;99.90;;;;;;5091221;28;20024;-51
2022/09/14 03:01:04;;;;;;;9.10;6.13;;;14.30;99.90;;;;;;5091439;28;20062;-50
2022/09/14 03:03:30;;;;;;;6.38;4.50;;;14.30;99.90;;;;;;5091141;28;20063;-50
2022/09/14 03:05:56;;;;;;;5.40;4.05;;;14.30;99.90;;;;;;5091334;28;20412;-50
2022/09/14 03:08:23;;;;;;;10.07;3.45;;;14.30;99.90;;;;;;5091191;28;20426;-50
2022/09/14 03:10:49;;;;;;;3.65;3.30;;;14.30;99.90;;;;;;5090958;28;20020;-52
2022/09/14 03:13:14;;;;;;;6.95;3.97;;;14.30;99.90;;;;;;5091311;28;20020;-52
2022/09/14 03:15:40;;;;;;;11.55;4.28;;;14.30;99.90;;;;;;5091092;28;20039;-50
2022/09/14 03:18:07;;;;;;;9.20;4.25;;;14.30;99.90;;;;;;5091348;28;20020;-53
2022/09/14 03:20:33;;;;;;;10.77;4.25;;;14.20;99.90;;;;;;5091043;28;20028;-52
2022/09/14 03:23:00;;;;;;;11.85;4.75;;;14.20;99.90;;;;;;5091214;28;20062;-50
2022/09/14 03:25:26;;;;;;;8.25;5.82;;;14.30;99.90;;;;;;5091048;28;20103;-52
2022/09/14 03:27:54;;;;;;;7.25;4.50;;;14.30;99.90;;;;;;5090659;28;20024;-51
2022/09/14 03:30:21;;;;;;;10.93;5.10;;;14.30;99.90;;;;;;5093397;28;20047;-50
2022/09/14 03:32:47;;;;;;;6.22;3.95;;;14.30;99.90;;;;;;5093415;28;20135;-51
2022/09/14 03:35:14;;;;;;;5.50;4.38;;;14.30;99.90;;;;;;5094565;28;20111;-51
2022/09/14 03:37:41;;;;;;;12.10;4.43;;;14.30;99.90;;;;;;5094573;28;20467;-50
2022/09/14 03:40:09;;;;;;;9.55;4.55;;;14.30;99.90;;;;;;5094592;28;20457;-50
2022/09/14 03:42:35;;;;;;;11.68;4.28;;;14.30;99.90;;;;;;5094456;28;20024;-50
2022/09/14 03:45:01;;;;;;;6.15;4.55;;;14.30;99.90;;;;;;5094471;28;20031;-53
2022/09/14 03:47:27;;;;;;;7.68;4.30;;;14.40;99.90;;;;;;5093229;28;20063;-54
2022/09/14 03:49:53;;;;;;;9.73;4.63;;;14.40;99.90;;;;;;5094031;28;20040;-51
2022/09/14 03:52:19;;;;;;;13.35;4.25;;;14.40;99.90;;;;;;5094428;28;20020;-52
2022/09/14 03:54:44;;;;;;;8.95;4.57;;;14.40;99.90;;;;;;5094215;28;20642;-51
2022/09/14 03:57:10;;;;;;;6.57;4.25;;;14.40;99.90;;;;;;5094305;28;20020;-50
2022/09/14 03:59:36;;;;;;;4.82;3.70;;;14.40;99.90;;;;;;5094095;28;20387;-52
2022/09/14 04:02:02;;;;;;;4.68;4.28;;;14.40;99.90;;;;;;5094228;28;20722;-51
2022/09/14 04:04:28;;;;;;;7.50;4.32;;;14.40;99.90;;;;;;5094006;28;20016;-55
2022/09/14 04:06:54;;;;;;;5.38;4.88;;;14.40;99.90;;;;;;5092764;28;20024;-50
2022/09/14 04:09:20;;;;;;;11.00;4.35;;;14.40;99.90;;;;;;5093869;28;20055;-52
2022/09/14 04:11:46;;;;;;;10.35;4.57;;;14.40;99.90;;;;;;5093783;28;20042;-54
2022/09/14 04:14:12;;;;;;;7.72;4.38;;;14.40;99.90;;;;;;5093894;28;20569;-52
2022/09/14 04:16:38;;;;;;;6.03;4.20;;;14.40;99.90;;;;;;5092358;28;20031;-51
2022/09/14 04:19:04;;;;;;;7.68;4.43;;;14.40;99.90;;;;;;5093891;28;20429;-53
2022/09/14 04:21:30;;;;;;;10.68;4.70;;;14.40;99.90;;;;;;5093757;28;20085;-50
2022/09/14 04:23:56;;;;;;;10.20;5.05;;;14.40;99.90;;;;;;5092467;28;20028;-51
2022/09/14 04:26:25;;;;;;;8.00;4.45;;;14.30;99.90;;;;;;5093594;28;20024;-50
2022/09/14 04:28:51;;;;;;;9.13;4.35;;;14.30;99.90;;;;;;5093700;28;20023;-50
2022/09/14 04:31:17;;;;;;;6.78;4.85;;;14.40;99.90;;;;;;5093489;28;20028;-54
2022/09/14 04:33:43;;;;;;;16.23;4.50;;;14.40;99.90;;;;;;5093388;28;20069;-52
2022/09/14 04:36:11;;;;;;;12.27;4.85;;;14.40;99.90;;;;;;5093669;28;20022;-51
2022/09/14 04:38:38;;;;;;;12.35;4.72;;;14.30;99.90;;;;;;5093374;28;20444;-51
2022/09/14 04:41:06;;;;;;;12.13;4.70;;;14.40;99.90;;;;;;5091529;28;20095;-54
2022/09/14 04:43:31;;;;;;;14.05;4.13;;;14.40;99.90;;;;;;5093242;28;20024;-50
2022/09/14 04:46:06;;;;;;;15.15;4.93;;;14.40;99.90;;;;;;5093447;28;20368;-51
2022/09/14 04:48:33;;;;;;;14.57;4.88;;;14.40;99.90;;;;;;5093291;28;20059;-54
2022/09/14 04:51:03;;;;;;;4.80;4.30;;;14.40;99.90;;;;;;5093214;28;20058;-51
2022/09/14 04:53:29;;;;;;;6.38;4.45;;;14.40;99.90;;;;;;5093340;28;20018;-50
2022/09/14 04:56:00;;;;;;;10.13;4.63;;;14.40;99.90;;;;;;5093241;28;20013;-54
2022/09/14 04:58:27;;;;;;;9.02;5.55;;;14.50;99.90;;;;;;5093232;28;20633;-53
2022/09/14 05:00:54;;;;;;;12.70;5.88;;;14.40;99.90;;;;;;5093077;28;20024;-52
2022/09/14 05:03:21;;;;;;;8.30;5.18;;;14.50;99.90;;;;;;5092841;28;20502;-51
2022/09/14 05:05:46;;;;;;;9.07;4.75;;;14.50;99.90;;;;;;5092830;28;20124;-51
2022/09/14 05:08:12;;;;;;;11.88;4.15;;;14.60;99.90;;;;;;5092663;28;20048;-52
2022/09/14 05:10:38;;;;;;;22.10;5.45;;;14.60;99.90;;;;;;5092427;28;20028;-51
2022/09/14 05:13:03;;;;;;;7.57;4.20;;;14.70;99.90;;;;;;5092573;28;20028;-51
2022/09/14 05:15:29;;;;;;;12.95;4.70;;;14.70;99.90;;;;;;5092327;28;20024;-51
2022/09/14 05:17:54;;;;;;;5.72;4.18;;;14.70;99.90;;;;;;5092475;28;20047;-52
2022/09/14 05:20:20;;;;;;;10.88;4.32;;;14.80;99.90;;;;;;5092586;28;20052;-54
2022/09/14 05:22:49;;;;;;;10.32;4.95;;;14.80;99.90;;;;;;5092546;28;20032;-51
2022/09/14 05:25:15;;;;;;;5.30;4.35;;;14.80;99.90;;;;;;5092630;28;20113;-52
2022/09/14 05:27:41;;;;;;;9.48;4.28;;;14.80;99.90;;;;;;5092553;28;20034;-51
2022/09/14 05:30:07;;;;;;;6.57;4.40;;;14.90;99.90;;;;;;5092381;28;20032;-53
2022/09/14 05:32:39;;;;;;;17.90;5.28;;;14.90;99.90;;;;;;5092266;28;20032;-52
2022/09/14 05:35:05;;;;;;;14.43;4.72;;;15.00;99.90;;;;;;5092336;28;20017;-51
2022/09/14 05:37:31;;;;;;;7.93;4.50;;;15.00;99.90;;;;;;5092207;28;20028;-50
2022/09/14 05:39:56;;;;;;;8.88;4.28;;;15.10;99.90;;;;;;5092132;28;20043;-52
2022/09/14 05:42:22;;;;;;;6.63;4.97;;;15.10;99.90;;;;;;5091995;28;20366;-52
2022/09/14 05:44:47;;;;;;;5.35;4.85;;;15.10;99.90;;;;;;5092000;28;20099;-51
2022/09/14 05:47:13;;;;;;;5.63;4.65;;;15.20;99.90;;;;;;5092231;28;20471;-52
2022/09/14 05:49:39;;;;;;;13.82;4.13;;;15.20;99.90;;;;;;5091948;28;20039;-51
2022/09/14 05:52:04;;;;;;;5.82;4.75;;;15.20;99.90;;;;;;5090115;28;20028;-52
2022/09/14 05:54:30;;;;;;;6.28;3.80;;;15.30;99.90;;;;;;5091971;28;20032;-52
2022/09/14 05:56:56;;;;;;;9.75;4.85;;;15.30;99.90;;;;;;5092119;28;20020;-54
2022/09/14 05:59:21;;;;;;;7.80;4.18;;;15.40;99.90;;;;;;5092141;28;20101;-49
2022/09/14 06:01:47;;;;;;;8.57;4.30;;;15.40;99.90;;;;;;5091800;28;20459;-55
2022/09/14 06:04:12;;;;;;;5.32;4.20;;;15.50;99.90;;;;;;5091956;28;20027;-52
2022/09/14 06:06:38;;;;;;;9.90;4.65;;;15.60;99.90;;;;;;5091952;28;20371;-51
2022/09/14 06:09:04;;;;;;;11.32;4.57;;;15.60;99.90;;;;;;5091845;28;20113;-53
2022/09/14 06:11:35;;;;;;;12.15;5.15;;;15.60;99.90;;;;;;5090429;28;20495;-51
2022/09/14 06:14:01;;;;;;;11.73;5.70;;;15.70;99.90;;;;;;5091876;28;20027;-51
2022/09/14 06:16:27;;;;;;;5.07;4.22;;;15.70;99.90;;;;;;5091802;28;20030;-51
2022/09/14 06:18:55;;;;;;;12.32;5.53;;;15.80;99.90;;;;;;5091848;28;20514;-51
2022/09/14 06:21:21;;;;;;;10.20;4.97;;;15.80;99.90;;;;;;5090384;28;20051;-51
2022/09/14 06:23:48;;;;;;;6.78;4.45;;;15.90;99.90;;;;;;5090102;28;20132;-51
2022/09/14 06:26:14;;;;;;;6.47;4.88;;;16.20;99.90;;;;;;5090465;28;20086;-50
2022/09/14 06:28:39;;;;;;;14.38;6.05;;;16.20;99.90;;;;;;5091564;28;20048;-51
2022/09/14 06:31:08;;;;;;;4.97;4.50;;;16.20;99.90;;;;;;5091306;28;20273;-53
2022/09/14 06:33:35;;;;;;;7.72;4.75;;;16.30;99.90;;;;;;5090185;28;20479;-51
2022/09/14 06:36:10;;;;;;;8.23;4.53;;;16.40;99.90;;;;;;5090873;28;20024;-51
2022/09/14 06:38:35;;;;;;;8.48;4.28;;;16.40;99.90;;;;;;5090220;28;20483;-50
2022/09/14 06:41:03;;;;;;;6.55;3.75;;;16.30;99.90;;;;;;5090056;28;20028;-51
2022/09/14 06:43:34;;;;;;;6.32;4.00;;;16.30;99.90;;;;;;5090017;28;20103;-50
2022/09/14 06:46:05;;;;;;;10.00;5.35;;;16.30;99.90;;;;;;5090247;28;20020;-54
2022/09/14 06:48:34;;;;;;;5.07;4.40;;;16.20;99.90;;;;;;5089992;28;20032;-51
2022/09/14 06:51:09;;;;;;;10.23;4.90;;;16.10;99.90;;;;;;5090093;28;20024;-50
2022/09/14 06:53:35;;;;;;;8.57;4.25;;;16.00;99.90;;;;;;5089990;28;20527;-51
2022/09/14 06:56:01;;;;;;;10.13;5.20;;;16.00;99.90;;;;;;5090154;28;20112;-51
2022/09/14 06:58:26;;;;;;;9.45;4.57;;;16.00;99.90;;;;;;5089961;28;20077;-50
2022/09/14 07:00:52;;;;;;;9.27;3.65;;;16.10;99.90;;;;;;5090131;28;20020;-51
2022/09/14 07:03:18;;;;;;;12.63;3.90;;;16.20;99.90;;;;;;5091776;28;20487;-51
2022/09/14 07:05:43;;;;;;;8.93;3.67;;;16.20;99.90;;;;;;5093936;28;20052;-51
2022/09/14 07:08:09;;;;;;;5.00;4.20;;;16.30;99.90;;;;;;5093822;28;20040;-51
2022/09/14 07:10:41;;;;;;;7.40;3.50;;;16.30;99.90;;;;;;5093721;28;20027;-50
2022/09/14 07:13:07;;;;;;;8.60;3.67;;;16.40;99.90;;;;;;5094176;28;20383;-51
2022/09/14 07:15:33;;;;;;;7.15;3.92;;;16.60;99.90;;;;;;5093688;28;20024;-51
2022/09/14 07:17:59;;;;;;;6.88;3.78;;;16.70;99.90;;;;;;5093906;28;20020;-51
2022/09/14 07:20:25;;;;;;;5.03;3.22;;;16.70;99.90;;;;;;5093755;28;20097;-54
2022/09/14 07:22:51;;;;;;;5.90;3.28;;;16.80;99.90;;;;;;5093747;28;20474;-51
2022/09/14 07:25:16;;;;;;;10.07;3.60;;;16.80;99.90;;;;;;5093666;28;20387;-51
2022/09/14 07:27:42;;;;;;;6.85;3.40;;;16.90;99.90;;;;;;5093528;28;20059;-50
2022/09/14 07:30:08;;;;;;;9.30;4.28;;;17.00;99.90;;;;;;5093548;28;20475;-50
2022/09/14 07:32:34;;;;;;;8.63;3.00;;;17.00;99.90;;;;;;5093466;28;20024;-53
2022/09/14 07:34:59;;;;;;;10.77;3.70;;;17.10;99.90;;;;;;5093528;28;20478;-52
2022/09/14 07:37:25;;;;;;;8.75;4.15;;;17.10;99.90;;;;;;5093265;28;20065;-52
2022/09/14 07:39:51;;;;;;;11.38;4.97;;;17.20;99.90;;;;;;5093302;28;20528;-51
2022/09/14 07:42:16;;;;;;;6.70;4.30;;;17.10;99.90;;;;;;5093409;28;20056;-50
2022/09/14 07:44:43;;;;;;;6.63;4.40;;;16.90;99.90;;;;;;5093396;28;20047;-50
2022/09/14 07:47:08;;;;;;;7.53;4.75;;;16.80;99.90;;;;;;5093561;28;20020;-50
2022/09/14 07:49:34;;;;;;;10.32;5.30;;;16.80;99.90;;;;;;5093107;28;20483;-50
2022/09/14 07:52:00;;;;;;;9.55;4.70;;;16.70;99.90;;;;;;5093220;28;20024;-51
2022/09/14 07:54:25;;;;;;;7.00;4.35;;;16.80;99.90;;;;;;5093123;28;20024;-50
2022/09/14 07:56:51;;;;;;;12.07;5.85;;;16.90;99.90;;;;;;5092783;28;20433;-54
2022/09/14 07:59:17;;;;;;;12.45;6.28;;;17.00;99.90;;;;;;5093088;28;20087;-51
2022/09/14 08:01:42;;;;;;;6.65;4.70;;;17.10;99.90;;;;;;5092898;28;20391;-51
2022/09/14 08:04:08;;;;;;;14.77;5.88;;;17.20;99.90;;;;;;5093086;28;20066;-51
2022/09/14 08:06:35;;;;;;;5.95;4.40;;;17.20;99.90;;;;;;5092888;28;20055;-51
2022/09/14 08:09:06;;;;;;;6.10;4.70;;;17.40;99.90;;;;;;5092682;28;20048;-51
2022/09/14 08:11:38;;;;;;;17.65;4.65;;;17.50;99.90;;;;;;5092650;28;20023;-50
2022/09/14 08:14:08;;;;;;;11.05;5.38;;;17.70;99.90;;;;;;5092117;28;20024;-51
2022/09/14 08:16:35;;;;;;;10.10;3.83;;;18.00;99.90;;;;;;5092406;28;20439;-53
2022/09/14 08:19:04;;;;;;;9.25;5.28;;;17.90;99.90;;;;;;5092581;28;20016;-51
2022/09/14 08:21:31;;;;;;;10.48;4.45;;;18.10;99.90;;;;;;5092399;28;20107;-50
2022/09/14 08:23:58;;;;;;;8.73;4.00;;;18.30;99.90;;;;;;5092727;28;20671;-53
2022/09/14 08:26:25;;;;;;;10.02;3.97;;;18.30;99.90;;;;;;5092570;28;20031;-50
2022/09/14 08:28:52;;;;;;;7.55;3.70;;;18.50;99.90;;;;;;5092507;28;20483;-51
2022/09/14 08:31:19;;;;;;;9.20;6.07;;;18.60;99.90;;;;;;5092412;28;20082;-51
2022/09/14 08:33:48;;;;;;;7.10;4.60;;;18.80;99.90;;;;;;5092176;28;20103;-52
2022/09/14 08:36:17;;;;;;;6.05;4.03;;;18.90;99.90;;;;;;5092357;28;20560;-52
2022/09/14 08:38:43;;;;;;;7.53;4.03;;;18.90;99.90;;;;;;5092250;28;20078;-51
2022/09/14 08:41:23;;;;;;;7.18;3.22;;;19.00;99.90;;;;;;5092192;28;20364;-50
2022/09/14 08:43:49;;;;;;;10.70;3.60;;;19.40;99.90;;;;;;5091921;28;20120;-54
2022/09/14 08:46:28;;;;;;;3.92;2.97;;;19.50;99.90;;;;;;5092107;28;20048;-51
2022/09/14 08:48:55;;;;;;;5.15;3.35;;;19.60;99.90;;;;;;5092009;28;20433;-51
2022/09/14 08:51:20;;;;;;;5.07;3.00;;;19.50;99.90;;;;;;5091998;28;20077;-51
2022/09/14 08:53:49;;;;;;;5.28;3.05;;;19.50;99.90;;;;;;5092144;28;20634;-55
2022/09/14 08:56:17;;;;;;;4.43;2.80;;;19.40;99.90;;;;;;5092332;28;20016;-53
2022/09/14 08:58:54;;;;;;;7.07;3.58;;;19.30;99.90;;;;;;5091734;28;20383;-51
2022/09/14 09:01:41;;;;;;;8.32;3.40;;;19.30;99.90;;;;;;5091907;28;20028;-51
2022/09/14 09:04:43;;;;;;;16.67;3.42;;;19.30;99.90;;;;;;5091834;28;20043;-50
2022/09/14 09:07:25;;;;;;;5.07;3.15;;;19.50;99.90;;;;;;5091647;28;20525;-51
2022/09/14 09:09:56;;;;;;;6.78;2.47;;;19.50;99.90;;;;;;5091420;28;20490;-52
2022/09/14 09:12:36;;;;;;;8.27;2.88;;;19.80;99.90;;;;;;5090341;28;20055;-50
2022/09/14 09:15:29;;;;;;;7.53;3.25;;;20.10;99.90;;;;;;5091696;28;20474;-51
2022/09/14 09:18:00;;;;;;;8.98;3.28;;;20.30;99.90;;;;;;5051152;28;20036;-51
2022/09/14 09:20:39;;;;;;;4.25;2.80;;;20.10;99.90;;;;;;5051167;28;20082;-53
2022/09/14 09:23:22;;;;;;;15.52;3.75;;;20.00;99.90;;;;;;5050935;28;20048;-52
2022/09/14 09:26:02;;;;;;;6.68;3.58;;;19.90;99.90;;;;;;5053459;28;20037;-52
2022/09/14 09:28:29;;;;;;;6.50;2.97;;;20.10;99.90;;;;;;5072718;28;20028;-51
2022/09/14 09:31:00;;;;;;;6.07;2.92;;;20.40;99.90;;;;;;5070744;28;20158;-51
2022/09/14 09:33:27;;;;;;;5.07;2.15;;;20.70;99.90;;;;;;5080383;28;20026;-52
2022/09/14 09:35:54;;;;;;;9.07;3.15;;;21.10;99.90;;;;;;5091177;28;20051;-51
2022/09/14 09:38:24;;;;;;;6.47;2.63;;;21.30;99.90;;;;;;5090994;28;20055;-52
2022/09/14 09:40:59;;;;;;;9.05;2.83;;;21.70;99.90;;;;;;5090482;28;20414;-53
2022/09/14 09:43:25;;;;;;;6.13;3.15;;;22.10;99.90;;;;;;5092050;28;20099;-52
2022/09/14 09:46:00;;;;;;;3.97;2.45;;;22.50;99.90;;;;;;5091895;28;20039;-51
2022/09/14 09:48:39;;;;;;;6.07;3.03;;;22.80;99.90;;;;;;5092211;28;20081;-52
2022/09/14 09:51:13;;;;;;;6.65;2.67;;;22.90;99.90;;;;;;5092010;28;20024;-50
2022/09/14 09:54:01;;;;;;;5.20;2.85;;;23.00;99.90;;;;;;5091978;28;20558;-52
2022/09/14 09:56:31;;;;;;;5.90;2.83;;;23.30;99.90;;;;;;5092077;28;20523;-54
2022/09/14 09:58:57;;;;;;;3.72;2.75;;;24.00;99.90;;;;;;5091907;28;20019;-54
2022/09/14 10:01:33;;;;;;;10.15;2.55;;;24.30;99.90;;;;;;5091933;28;20020;-52
2022/09/14 10:04:14;;;;;;;6.40;2.25;;;24.90;99.90;;;;;;5091794;28;20033;-52
2022/09/14 10:06:42;;;;;;;10.57;2.20;;;25.30;99.90;;;;;;5091600;28;20067;-52
2022/09/14 10:09:26;;;;;;;8.30;2.53;;;25.60;99.90;;;;;;5091564;28;20116;-51
2022/09/14 10:12:01;;;;;;;8.40;2.10;;;25.60;99.90;;;;;;5091627;28;20073;-51
2022/09/14 10:14:35;;;;;;;6.22;2.03;;;25.90;99.90;;;;;;5091430;28;20043;-51
2022/09/14 10:17:14;;;;;;;10.23;2.40;;;26.20;99.90;;;;;;5090693;28;20020;-53
2022/09/14 10:19:45;;;;;;;10.40;2.40;;;26.30;99.90;;;;;;5090230;28;20051;-50
2022/09/14 10:22:31;;;;;;;6.18;2.03;;;26.40;99.90;;;;;;5090371;28;20023;-54
2022/09/14 10:25:12;;;;;;;5.15;2.28;;;26.70;99.90;;;;;;5090665;28;20014;-51
2022/09/14 10:27:55;;;;;;;6.40;2.20;;;26.30;99.90;;;;;;5090365;28;20055;-52
2022/09/14 10:30:24;;;;;;;6.30;1.90;;;26.40;99.90;;;;;;5090199;28;20031;-50
2022/09/14 10:33:01;;;;;;;7.45;2.05;;;26.70;99.90;;;;;;5088877;28;20032;-51
2022/09/14 10:36:08;;;;;;;4.97;1.70;;;26.90;99.60;;;;;;5090290;28;20016;-53
2022/09/14 10:38:45;;;;;;;11.32;1.50;;;27.10;99.30;;;;;;5094604;28;20016;-51
2022/09/14 10:41:50;;;;;;;11.85;2.05;;;27.00;97.70;;;;;;5095771;28;20520;-50
2022/09/14 10:44:31;;;;;;;3.42;1.40;;;27.00;97.90;;;;;;5096881;28;20487;-52
2022/09/14 10:47:09;;;;;;;10.48;1.95;;;26.70;97.30;;;;;;5096845;28;20085;-50
2022/09/14 10:49:50;;;;;;;10.48;1.98;;;27.10;97.40;;;;;;5096678;28;20480;-51
2022/09/14 10:52:43;;;;;;;2.50;1.40;;;27.40;96.50;;;;;;5096840;28;20077;-51
2022/09/14 10:55:33;;;;;;;11.05;2.00;;;27.00;96.00;;;;;;5096749;28;20034;-50
2022/09/14 10:58:05;;;;;;;8.45;1.70;;;27.50;95.20;;;;;;5096807;28;20386;-51
2022/09/14 11:00:52;;;;;;;14.73;1.92;;;28.10;94.10;;;;;;5096643;28;20031;-52
2022/09/14 11:03:26;;;;;;;9.90;1.48;;;28.40;92.90;;;;;;5096851;28;20479;-53
2022/09/14 11:06:29;;;;;;;8.82;2.95;;;29.00;91.90;;;;;;5090631;28;20048;-51
2022/09/14 11:09:01;;;;;;;6.60;1.60;;;30.50;89.20;;;;;;5075402;28;20044;-51
2022/09/14 11:11:30;;;;;;;6.32;1.40;;;30.80;88.50;;;;;;5076239;28;20785;-52
2022/09/14 11:14:01;;;;;;;8.38;2.10;;;31.00;86.30;;;;;;5076468;28;20016;-52
2022/09/14 11:16:56;;;;;;;6.72;1.45;;;31.00;85.20;;;;;;5076259;28;20029;-52
2022/09/14 11:19:28;;;;;;;15.63;1.80;;;31.20;82.30;;;;;;5076335;28;20028;-52
2022/09/14 11:22:23;;;;;;;2.95;1.00;;;30.40;81.80;;;;;;5075200;28;20436;-52
2022/09/14 11:25:00;;;;;;;8.52;1.50;;;32.10;79.90;;;;;;5065187;28;20032;-53
2022/09/14 11:27:35;;;;;;;11.73;1.70;;;32.80;76.50;;;;;;5076188;28;20021;-52
2022/09/14 11:30:09;;;;;;;9.55;1.67;;;32.10;73.90;;;;;;5076280;28;20028;-51
2022/09/14 11:32:59;;;;;;;8.57;1.60;;;31.80;77.80;;;;;;5076005;28;20122;-50
2022/09/14 11:35:51;;;;;;;11.63;1.58;;;32.30;75.50;;;;;;5067549;28;20060;-52
2022/09/14 11:38:29;;;;;;;7.30;1.50;;;31.80;75.40;;;;;;5076267;28;20028;-52
2022/09/14 11:41:27;;;;;;;9.15;1.55;;;30.90;78.10;;;;;;5076593;28;20040;-51
2022/09/14 11:44:24;;;;;;;17.38;2.05;;;31.30;75.00;;;;;;5054974;28;20029;-52
2022/09/14 11:47:17;;;;;;;14.00;2.33;;;30.40;77.20;;;;;;5051848;28;20395;-52
2022/09/14 11:50:04;;;;;;;8.77;1.97;;;30.30;78.60;;;;;;5070081;28;20037;-51
2022/09/14 11:52:31;;;;;;;6.53;1.95;;;30.80;77.20;;;;;;5072723;28;20039;-53
2022/09/14 11:54:59;;;;;;;6.47;1.70;;;30.70;77.40;;;;;;5071546;28;20331;-51
2022/09/14 11:57:32;;;;;;;4.75;1.40;;;30.10;76.10;;;;;;5072920;28;20503;-51
2022/09/14 12:00:00;;;;;;;15.55;2.00;;;29.20;82.20;;;;;;5072589;28;20099;-54
2022/09/14 12:02:26;;;;;;;3.65;1.48;;;28.80;80.80;;;;;;5072692;28;20082;-53
2022/09/14 12:05:04;;;;;;;9.27;2.10;;;28.60;81.90;;;;;;5072363;28;20024;-52
2022/09/14 12:07:41;;;;;;;12.82;1.80;;;29.00;82.60;;;;;;5072397;28;20043;-51
2022/09/14 12:10:19;;;;;;;10.70;2.75;;;29.30;79.40;;;;;;5072335;28;20040;-51
2022/09/14 12:13:03;;;;;;;6.10;1.52;;;29.80;80.10;;;;;;5072160;28;20141;-51
2022/09/14 12:15:28;;;;;;;4.40;1.77;;;30.70;78.10;;;;;;5070990;28;20016;-51
2022/09/14 12:18:06;;;;;;;12.43;2.50;;;30.50;76.10;;;;;;5071015;28;20028;-52
2022/09/14 12:20:34;;;;;;;6.47;2.15;;;31.30;75.00;;;;;;5072287;28;20020;-52
2022/09/14 12:23:35;;;;;;;17.13;1.35;;;31.80;72.40;;;;;;5072255;28;20488;-54
2022/09/14 12:26:11;;;;;;;12.82;1.77;;;33.30;72.40;;;;;;5071015;28;20036;-53
2022/09/14 12:28:36;;;;;;;8.50;1.83;;;33.00;70.40;;;;;;5072123;28;20122;-51
2022/09/14 12:31:02;;;;;;;6.85;1.88;;;33.60;69.60;;;;;;5072159;28;20504;-51
2022/09/14 12:33:33;;;;;;;5.38;1.90;;;32.90;69.90;;;;;;5072030;28;20031;-51
2022/09/14 12:36:05;;;;;;;17.27;1.75;;;32.50;71.80;;;;;;5072166;28;20016;-52
2022/09/14 12:38:31;;;;;;;6.57;1.13;;;32.10;70.40;;;;;;5071972;28;20025;-53
2022/09/14 12:40:57;;;;;;;8.18;1.70;;;33.20;71.10;;;;;;5072438;28;20112;-54
2022/09/14 12:43:32;;;;;;;8.27;1.58;;;33.90;70.60;;;;;;5073238;28;20486;-51
2022/09/14 12:46:19;;;;;;;18.25;2.58;;;34.00;67.70;;;;;;5073044;28;20044;-66
2022/09/14 12:48:47;;;;;;;9.93;1.42;;;34.20;67.90;;;;;;5073030;28;20543;-56
2022/09/14 12:51:35;;;;;;;19.58;2.28;;;34.60;67.80;;;;;;5073080;28;20111;-56
2022/09/14 12:54:24;;;;;;;6.32;1.58;;;34.00;65.40;;;;;;5073116;28;20027;-57
2022/09/14 12:57:12;;;;;;;12.82;2.13;;;33.40;66.20;;;;;;5067240;28;20037;-52
2022/09/14 12:59:37;;;;;;;5.57;1.40;;;33.80;65.50;;;;;;5072726;28;20020;-53
2022/09/14 13:02:15;;;;;;;6.35;1.52;;;34.70;66.90;;;;;;5070908;28;20058;-54
2022/09/14 13:04:44;;;;;;;8.88;1.23;;;35.70;65.40;;;;;;5072548;28;20099;-53
2022/09/14 13:07:15;;;;;;;7.72;1.60;;;36.30;63.60;;;;;;5072699;28;20032;-60